createdAt,value
2023-01-30T00:01:04.095Z,53.61
2023-01-30T00:03:31.090Z,53.62
2023-01-30T00:05:58.210Z,53.49
2023-01-30T00:08:25.528Z,53.73
2023-01-30T00:10:52.799Z,53.47
2023-01-30T00:13:19.927Z,53.79
2023-01-30T00:15:48.615Z,53.56
2023-01-30T00:18:15.495Z,53.63
2023-01-30T00:20:42.432Z,53.78
2023-01-30T00:23:09.346Z,53.82
2023-01-30T00:25:36.333Z,53.70
2023-01-30T00:28:03.567Z,53.59
2023-01-30T00:30:30.770Z,53.76
2023-01-30T00:32:59.287Z,53.94
2023-01-30T00:35:28.954Z,53.93
2023-01-30T00:37:57.830Z,53.99
2023-01-30T00:40:26.589Z,53.79
2023-01-30T00:46:18.346Z,53.86
2023-01-30T00:48:45.161Z,53.97
2023-01-30T00:51:12.055Z,53.98
2023-01-30T00:53:38.940Z,54.20
2023-01-30T00:56:06.349Z,54.23
2023-01-30T00:58:34.041Z,54.13
2023-01-30T01:01:01.053Z,54.27
2023-01-30T01:03:27.877Z,54.12
2023-01-30T01:05:54.709Z,54.34
2023-01-30T01:08:22.950Z,54.07
2023-01-30T01:10:50.110Z,54.27
2023-01-30T01:13:16.985Z,53.93
2023-01-30T01:15:43.835Z,54.07
2023-01-30T01:18:10.757Z,54.25
2023-01-30T01:20:37.603Z,54.10
2023-01-30T01:23:04.449Z,54.17
2023-01-30T01:25:31.290Z,54.15
2023-01-30T01:27:58.120Z,54.35
2023-01-30T01:30:25.034Z,54.14
2023-01-30T01:32:51.885Z,54.31
2023-01-30T01:35:20.299Z,54.61
2023-01-30T01:37:47.431Z,54.27
2023-01-30T01:40:39.180Z,54.29
2023-01-30T01:43:23.325Z,54.15
2023-01-30T01:45:55.014Z,54.43
2023-01-30T01:48:33.131Z,54.40
2023-01-30T01:51:05.017Z,54.27
2023-01-30T01:53:36.610Z,54.36
2023-01-30T01:56:04.863Z,54.29
2023-01-30T01:58:46.676Z,54.33
2023-01-30T02:01:14.434Z,54.26
2023-01-30T02:03:47.444Z,54.23
2023-01-30T02:06:16.444Z,54.30
2023-01-30T02:08:56.290Z,54.60
2023-01-30T02:11:43.076Z,54.54
2023-01-30T02:14:12.345Z,54.49
2023-01-30T02:16:39.346Z,54.63
2023-01-30T02:19:23.579Z,54.63
2023-01-30T02:22:12.079Z,54.70
2023-01-30T02:24:38.884Z,54.62
2023-01-30T02:27:18.977Z,54.55
2023-01-30T02:30:09.175Z,54.84
2023-01-30T02:33:16.299Z,54.56
2023-01-30T02:35:58.797Z,54.87
2023-01-30T02:38:57.741Z,54.73
2023-01-30T02:41:44.061Z,54.75
2023-01-30T02:44:17.026Z,54.63
2023-01-30T02:46:49.733Z,54.54
2023-01-30T02:49:24.186Z,54.70
2023-01-30T02:51:52.789Z,54.85
2023-01-30T02:54:19.623Z,54.69
2023-01-30T02:56:50.261Z,54.86
2023-01-30T02:59:23.429Z,54.96
2023-01-30T03:01:58.905Z,54.83
2023-01-30T03:04:32.166Z,54.78
2023-01-30T03:07:14.085Z,54.89
2023-01-30T03:10:01.163Z,54.87
2023-01-30T03:12:39.846Z,54.99
2023-01-30T03:15:12.928Z,54.74
2023-01-30T03:17:44.001Z,54.61
2023-01-30T03:20:12.059Z,54.98
2023-01-30T03:22:38.870Z,54.77
2023-01-30T03:25:06.368Z,54.76
2023-01-30T03:27:35.415Z,54.97
2023-01-30T03:30:02.301Z,54.99
2023-01-30T03:32:29.113Z,54.97
2023-01-30T03:34:55.944Z,55.01
2023-01-30T03:37:22.852Z,54.98
2023-01-30T03:39:49.893Z,54.82
2023-01-30T03:42:16.895Z,54.91
2023-01-30T03:44:43.721Z,54.98
2023-01-30T03:47:10.536Z,55.18
2023-01-30T03:49:37.376Z,55.18
2023-01-30T03:52:04.283Z,55.13
2023-01-30T03:54:31.107Z,54.86
2023-01-30T03:56:57.947Z,54.85
2023-01-30T03:59:24.832Z,54.88
2023-01-30T04:01:51.651Z,54.88
2023-01-30T04:04:18.633Z,55.11
2023-01-30T04:06:45.449Z,55.10
2023-01-30T04:09:12.310Z,54.94
2023-01-30T04:11:39.121Z,55.05
2023-01-30T04:14:05.952Z,55.00
2023-01-30T04:16:32.821Z,54.87
2023-01-30T04:18:59.647Z,55.25
2023-01-30T04:21:26.427Z,55.12
2023-01-30T04:23:53.314Z,54.94
2023-01-30T04:26:20.160Z,54.84
2023-01-30T04:28:46.998Z,55.09
2023-01-30T04:31:13.963Z,55.07
2023-01-30T04:33:41.692Z,55.08
2023-01-30T04:36:09.962Z,54.99
2023-01-30T04:38:37.641Z,54.88
2023-01-30T04:41:05.137Z,55.03
2023-01-30T04:43:32.616Z,54.99
2023-01-30T04:45:59.432Z,54.87
2023-01-30T04:48:26.752Z,55.03
2023-01-30T04:50:56.210Z,54.84
2023-01-30T04:53:23.877Z,54.81
2023-01-30T04:55:50.884Z,55.04
2023-01-30T04:58:19.614Z,54.77
2023-01-30T05:00:47.520Z,55.00
2023-01-30T05:03:14.840Z,55.22
2023-01-30T05:05:42.102Z,54.87
2023-01-30T05:08:09.421Z,54.94
2023-01-30T05:10:36.200Z,55.11
2023-01-30T05:13:06.180Z,54.80
2023-01-30T05:15:33.661Z,55.07
2023-01-30T05:18:01.187Z,55.01
2023-01-30T05:20:28.318Z,55.08
2023-01-30T05:22:55.128Z,55.13
2023-01-30T05:25:21.990Z,55.01
2023-01-30T05:27:48.800Z,54.85
2023-01-30T05:30:15.708Z,54.89
2023-01-30T05:32:42.637Z,54.92
2023-01-30T05:35:09.751Z,55.18
2023-01-30T05:37:38.046Z,55.17
2023-01-30T05:40:06.231Z,54.91
2023-01-30T05:42:33.274Z,54.71
2023-01-30T05:45:00.200Z,54.70
2023-01-30T05:47:27.298Z,54.69
2023-01-30T05:49:54.113Z,54.45
2023-01-30T05:52:20.964Z,54.24
2023-01-30T05:54:47.859Z,54.40
2023-01-30T05:57:14.689Z,54.20
2023-01-30T05:59:41.576Z,54.36
2023-01-30T06:02:09.987Z,54.37
2023-01-30T06:04:38.119Z,54.34
2023-01-30T06:07:05.003Z,54.54
2023-01-30T06:09:31.886Z,54.51
2023-01-30T06:11:58.813Z,54.50
2023-01-30T06:14:25.596Z,54.71
2023-01-30T06:16:52.637Z,54.73
2023-01-30T06:19:19.512Z,54.64
2023-01-30T06:21:46.318Z,55.15
2023-01-30T06:24:13.385Z,55.08
2023-01-30T06:26:40.245Z,55.17
2023-01-30T06:29:07.179Z,55.16
2023-01-30T06:31:34.144Z,55.46
2023-01-30T06:34:01.033Z,55.44
2023-01-30T06:36:27.950Z,55.60
2023-01-30T06:38:55.015Z,55.82
2023-01-30T06:41:21.903Z,55.81
2023-01-30T06:43:48.810Z,55.72
2023-01-30T06:46:15.771Z,55.65
2023-01-30T06:48:42.665Z,55.42
2023-01-30T06:51:09.522Z,55.62
2023-01-30T06:53:37.039Z,55.61
2023-01-30T06:56:04.262Z,55.59
2023-01-30T06:58:31.179Z,55.17
2023-01-30T07:00:58.083Z,54.92
2023-01-30T07:03:25.075Z,54.92
2023-01-30T07:05:52.254Z,54.75
2023-01-30T07:08:19.250Z,54.39
2023-01-30T07:10:46.247Z,54.62
2023-01-30T07:13:13.732Z,54.45
2023-01-30T07:15:40.990Z,54.35
2023-01-30T07:18:07.790Z,54.10
2023-01-30T07:20:35.046Z,54.10
2023-01-30T07:23:02.792Z,54.04
2023-01-30T07:25:30.523Z,53.96
2023-01-30T07:27:59.880Z,53.82
2023-01-30T07:30:28.776Z,53.64
2023-01-30T07:32:58.071Z,53.89
2023-01-30T07:35:26.831Z,53.44
2023-01-30T07:37:54.001Z,51.78
2023-01-30T07:40:21.929Z,52.65
2023-01-30T07:43:06.521Z,53.43
2023-01-30T07:45:45.031Z,53.99
2023-01-30T07:48:14.151Z,53.95
2023-01-30T07:50:41.162Z,54.06
2023-01-30T07:53:11.469Z,54.30
2023-01-30T07:55:38.592Z,54.03
2023-01-30T07:58:05.537Z,54.40
2023-01-30T08:00:32.889Z,54.44
2023-01-30T08:02:59.816Z,54.26
2023-01-30T08:05:26.851Z,54.55
2023-01-30T08:07:56.668Z,54.26
2023-01-30T08:10:23.764Z,54.55
2023-01-30T08:12:52.027Z,54.25
2023-01-30T08:15:22.833Z,54.19
2023-01-30T08:17:57.675Z,54.40
2023-01-30T08:20:25.848Z,54.33
2023-01-30T08:22:53.165Z,54.47
2023-01-30T08:25:21.108Z,54.25
2023-01-30T08:27:48.011Z,54.51
2023-01-30T08:30:15.100Z,54.32
2023-01-30T08:32:42.125Z,54.39
2023-01-30T08:35:09.946Z,54.50
2023-01-30T08:37:37.268Z,54.35
2023-01-30T08:40:04.624Z,54.71
2023-01-30T08:42:31.469Z,54.73
2023-01-30T08:44:58.358Z,54.68
2023-01-30T08:47:25.499Z,54.67
2023-01-30T08:49:53.273Z,54.55
2023-01-30T08:52:21.773Z,54.84
2023-01-30T08:54:48.729Z,54.75
2023-01-30T08:57:15.904Z,54.89
2023-01-30T08:59:43.065Z,54.76
2023-01-30T09:02:13.869Z,54.77
2023-01-30T09:04:40.877Z,54.74
2023-01-30T09:07:07.985Z,54.88
2023-01-30T09:09:35.600Z,54.98
2023-01-30T09:12:02.619Z,55.00
2023-01-30T09:14:29.692Z,55.07
2023-01-30T09:16:56.728Z,55.06
2023-01-30T09:19:25.311Z,54.95
2023-01-30T09:21:53.524Z,54.86
2023-01-30T09:24:21.197Z,54.89
2023-01-30T09:26:48.610Z,55.12
2023-01-30T09:29:15.538Z,55.09
2023-01-30T09:31:42.497Z,54.88
2023-01-30T09:34:09.379Z,55.21
2023-01-30T09:36:36.343Z,55.02
2023-01-30T09:39:03.943Z,55.16
2023-01-30T09:42:06.155Z,55.18
2023-01-30T09:45:04.643Z,55.09
2023-01-30T09:47:57.727Z,55.00
2023-01-30T09:50:44.085Z,55.04
2023-01-30T09:53:36.060Z,54.86
2023-01-30T09:56:03.217Z,54.81
2023-01-30T09:58:45.472Z,54.91
2023-01-30T10:01:21.657Z,54.75
2023-01-30T10:04:11.580Z,54.76
2023-01-30T10:06:52.614Z,55.00
2023-01-30T10:10:11.984Z,54.95
2023-01-30T10:12:50.981Z,54.79
2023-01-30T10:15:20.459Z,54.94
2023-01-30T10:18:11.477Z,54.83
2023-01-30T10:21:00.719Z,55.14
2023-01-30T10:23:30.711Z,54.93
2023-01-30T10:26:23.628Z,55.21
2023-01-30T10:29:07.715Z,54.92
2023-01-30T10:31:49.852Z,55.15
2023-01-30T10:34:26.587Z,55.13
2023-01-30T10:37:10.208Z,55.21
2023-01-30T10:40:01.221Z,55.32
2023-01-30T10:42:40.447Z,55.24
2023-01-30T10:45:21.121Z,55.02
2023-01-30T10:47:54.192Z,55.24
2023-01-30T10:50:48.215Z,55.30
2023-01-30T10:53:24.169Z,55.16
2023-01-30T10:56:10.128Z,55.21
2023-01-30T10:58:49.088Z,55.35
2023-01-30T11:01:31.835Z,55.17
2023-01-30T11:04:15.309Z,55.21
2023-01-30T11:06:43.088Z,55.04
2023-01-30T11:09:17.509Z,55.28
2023-01-30T11:11:55.322Z,55.27
2023-01-30T11:14:22.429Z,55.23
2023-01-30T11:16:58.145Z,55.34
2023-01-30T11:19:33.413Z,55.19
2023-01-30T11:22:07.409Z,55.06
2023-01-30T11:24:41.733Z,54.90
2023-01-30T11:27:19.896Z,55.11
2023-01-30T11:29:48.609Z,55.09
2023-01-30T11:32:25.974Z,55.25
2023-01-30T11:35:07.998Z,55.22
2023-01-30T11:37:35.320Z,55.07
2023-01-30T11:40:21.750Z,55.10
2023-01-30T11:42:51.626Z,55.31
2023-01-30T11:45:20.384Z,55.25
2023-01-30T11:48:04.078Z,55.22
2023-01-30T11:50:47.584Z,55.09
2023-01-30T11:53:47.902Z,54.86
2023-01-30T11:56:15.040Z,55.00
2023-01-30T11:58:48.267Z,54.94
2023-01-30T12:01:16.575Z,55.19
2023-01-30T12:03:50.688Z,55.26
2023-01-30T12:06:29.104Z,55.09
2023-01-30T12:08:57.697Z,55.21
2023-01-30T12:11:42.905Z,55.09
2023-01-30T12:14:15.380Z,55.21
2023-01-30T12:16:57.546Z,55.12
2023-01-30T12:19:34.414Z,55.15
2023-01-30T12:22:53.725Z,55.08
2023-01-30T12:25:31.099Z,55.02
2023-01-30T12:28:03.203Z,55.16
2023-01-30T12:30:37.123Z,55.02
2023-01-30T12:33:07.478Z,54.99
2023-01-30T12:36:09.404Z,55.00
2023-01-30T12:38:51.465Z,54.76
2023-01-30T12:41:37.010Z,54.90
2023-01-30T12:44:07.106Z,54.92
2023-01-30T12:46:37.386Z,54.52
2023-01-30T12:49:28.989Z,54.60
2023-01-30T12:51:55.887Z,54.83
2023-01-30T12:54:29.186Z,54.85
2023-01-30T12:57:13.986Z,54.78
2023-01-30T12:59:59.337Z,54.64
2023-01-30T13:02:52.491Z,54.83
2023-01-30T13:05:43.126Z,54.49
2023-01-30T13:08:21.909Z,54.77
2023-01-30T13:11:31.294Z,54.82
2023-01-30T13:14:01.312Z,54.87
2023-01-30T13:16:32.649Z,54.85
2023-01-30T13:19:21.112Z,54.75
2023-01-30T13:22:08.555Z,54.78
2023-01-30T13:24:44.422Z,54.77
2023-01-30T13:27:17.464Z,54.96
2023-01-30T13:29:45.816Z,54.74
2023-01-30T13:32:22.258Z,54.87
2023-01-30T13:34:50.351Z,54.85
2023-01-30T13:37:19.565Z,55.09
2023-01-30T13:39:55.344Z,54.91
2023-01-30T13:42:50.313Z,54.88
2023-01-30T13:45:23.712Z,55.13
2023-01-30T13:48:30.290Z,55.04
2023-01-30T13:51:21.217Z,55.22
2023-01-30T13:53:51.025Z,55.01
2023-01-30T13:56:41.401Z,55.21
2023-01-30T13:59:21.659Z,55.16
2023-01-30T14:02:03.963Z,55.24
2023-01-30T14:04:31.229Z,55.29
2023-01-30T14:07:25.723Z,55.17
2023-01-30T14:09:52.761Z,55.24
2023-01-30T14:12:22.880Z,55.05
2023-01-30T14:15:14.159Z,55.25
2023-01-30T14:18:07.670Z,55.21
2023-01-30T14:20:47.847Z,55.09
2023-01-30T14:23:59.202Z,55.29
2023-01-30T14:26:53.517Z,55.39
2023-01-30T14:29:38.551Z,55.19
2023-01-30T14:32:14.769Z,55.47
2023-01-30T14:34:48.040Z,54.60
2023-01-30T14:37:37.892Z,55.18
2023-01-30T14:40:29.951Z,55.43
2023-01-30T14:43:19.735Z,54.82
2023-01-30T14:45:51.134Z,51.42
2023-01-30T14:48:44.822Z,50.22
2023-01-30T14:51:38.939Z,49.81
2023-01-30T14:54:15.077Z,49.93
2023-01-30T14:57:00.212Z,50.02
2023-01-30T14:59:38.935Z,49.17
2023-01-30T15:02:15.147Z,50.31
2023-01-30T15:05:08.329Z,51.37
2023-01-30T15:07:48.686Z,50.61
2023-01-30T15:10:43.074Z,51.55
2023-01-30T15:13:27.467Z,52.29
2023-01-30T15:16:00.307Z,52.23
2023-01-30T15:18:52.383Z,52.67
2023-01-30T15:21:29.363Z,52.75
2023-01-30T15:24:33.536Z,52.88
2023-01-30T15:27:35.323Z,53.15
2023-01-30T15:30:27.092Z,50.80
2023-01-30T15:33:29.489Z,49.66
2023-01-30T15:35:57.846Z,49.46
2023-01-30T15:38:33.741Z,50.06
2023-01-30T15:41:06.054Z,49.73
2023-01-30T15:43:47.605Z,49.74
2023-01-30T15:46:26.732Z,49.77
2023-01-30T15:49:12.252Z,49.92
2023-01-30T15:51:39.655Z,50.29
2023-01-30T15:54:11.546Z,51.42
2023-01-30T15:56:40.772Z,51.85
2023-01-30T15:59:09.020Z,52.14
2023-01-30T16:01:36.132Z,52.54
2023-01-30T16:04:08.220Z,52.67
2023-01-30T16:06:37.713Z,53.19
2023-01-30T16:09:19.153Z,53.01
2023-01-30T16:11:46.318Z,51.36
2023-01-30T16:14:15.824Z,50.70
2023-01-30T16:16:48.757Z,50.05
2023-01-30T16:19:26.780Z,49.94
2023-01-30T16:21:57.472Z,50.06
2023-01-30T16:24:28.634Z,49.81
2023-01-30T16:27:01.324Z,49.75
2023-01-30T16:29:31.559Z,50.03
2023-01-30T16:31:59.073Z,50.16
2023-01-30T16:34:31.410Z,50.10
2023-01-30T16:37:06.314Z,50.45
2023-01-30T16:39:35.888Z,51.20
2023-01-30T16:42:24.420Z,51.80
2023-01-30T16:44:51.497Z,51.89
2023-01-30T16:47:27.620Z,52.19
2023-01-30T16:49:56.973Z,52.18
2023-01-30T16:52:46.879Z,52.87
2023-01-30T16:55:26.438Z,52.70
2023-01-30T16:58:03.208Z,53.05
2023-01-30T17:00:40.092Z,53.16
2023-01-30T17:03:30.174Z,53.34
2023-01-30T17:06:01.584Z,53.20
2023-01-30T17:08:32.286Z,53.26
2023-01-30T17:11:01.763Z,53.75
2023-01-30T17:13:38.640Z,54.06
2023-01-30T17:16:23.954Z,53.87
2023-01-30T17:18:52.650Z,54.02
2023-01-30T17:21:21.088Z,54.02
2023-01-30T17:23:59.001Z,51.31
2023-01-30T17:26:26.078Z,50.70
2023-01-30T17:28:53.042Z,50.82
2023-01-30T17:31:21.327Z,51.43
2023-01-30T17:33:48.792Z,52.41
2023-01-30T17:36:30.167Z,53.16
2023-01-30T17:38:59.650Z,53.41
2023-01-30T17:41:30.506Z,53.66
2023-01-30T17:43:58.069Z,53.73
2023-01-30T17:46:34.003Z,53.62
2023-01-30T17:49:01.011Z,54.23
2023-01-30T17:51:27.912Z,54.35
2023-01-30T17:53:54.965Z,54.25
2023-01-30T17:56:38.582Z,54.10
2023-01-30T17:59:08.787Z,54.31
2023-01-30T18:01:35.749Z,54.46
2023-01-30T18:04:02.627Z,54.54
2023-01-30T18:06:32.285Z,54.71
2023-01-30T18:08:59.249Z,54.38
2023-01-30T18:11:26.506Z,53.74
2023-01-30T18:13:53.427Z,54.09
2023-01-30T18:16:28.900Z,54.53
2023-01-30T18:18:55.828Z,54.76
2023-01-30T18:21:22.827Z,54.82
2023-01-30T18:23:50.475Z,54.67
2023-01-30T18:26:19.034Z,54.92
2023-01-30T18:28:46.506Z,54.92
2023-01-30T18:31:13.636Z,54.70
2023-01-30T18:33:45.092Z,54.85
2023-01-30T18:36:15.061Z,54.73
2023-01-30T18:38:42.533Z,54.55
2023-01-30T18:41:18.342Z,51.47
2023-01-30T18:43:48.716Z,53.21
2023-01-30T18:46:18.257Z,54.07
2023-01-30T18:48:46.190Z,53.89
2023-01-30T18:51:19.435Z,54.05
2023-01-30T18:53:50.957Z,54.06
2023-01-30T18:56:20.271Z,53.81
2023-01-30T18:58:49.985Z,53.99
2023-01-30T19:01:22.004Z,54.42
2023-01-30T19:03:49.301Z,54.14
2023-01-30T19:06:18.603Z,54.14
2023-01-30T19:08:46.452Z,54.15
2023-01-30T19:11:35.201Z,54.16
2023-01-30T19:14:03.031Z,54.31
2023-01-30T19:16:32.098Z,54.24
2023-01-30T19:18:59.507Z,54.32
2023-01-30T19:21:27.007Z,54.14
2023-01-30T19:23:54.713Z,54.26
2023-01-30T19:26:23.515Z,53.98
2023-01-30T19:28:51.575Z,54.27
2023-01-30T19:31:21.199Z,53.98
2023-01-30T19:34:02.929Z,54.01
2023-01-30T19:36:33.085Z,53.91
2023-01-30T19:39:02.086Z,53.66
2023-01-30T19:41:32.274Z,54.04
2023-01-30T19:44:01.510Z,54.13
2023-01-30T19:46:30.158Z,53.75
2023-01-30T19:48:58.750Z,53.71
2023-01-30T19:51:46.420Z,53.54
2023-01-30T19:54:14.983Z,53.55
2023-01-30T19:56:47.965Z,53.74
2023-01-30T19:59:16.860Z,53.52
2023-01-30T20:01:44.528Z,53.55
2023-01-30T20:04:15.049Z,53.42
2023-01-30T20:06:44.924Z,53.35
2023-01-30T20:09:13.047Z,53.26
2023-01-30T20:11:42.500Z,53.17
2023-01-30T20:14:12.487Z,52.62
2023-01-30T20:16:42.697Z,52.57
2023-01-30T20:19:17.454Z,52.62
2023-01-30T20:21:46.095Z,52.49
2023-01-30T20:24:16.776Z,52.44
2023-01-30T20:26:48.074Z,52.40
2023-01-30T20:29:18.799Z,52.28
2023-01-30T20:31:47.830Z,52.36
2023-01-30T20:34:16.100Z,52.49
2023-01-30T20:36:43.442Z,52.72
2023-01-30T20:39:11.797Z,52.71
2023-01-30T20:41:39.696Z,52.77
2023-01-30T20:44:09.721Z,53.28
2023-01-30T20:46:41.867Z,53.89
2023-01-30T20:49:15.129Z,54.36
2023-01-30T20:51:44.105Z,54.47
2023-01-30T20:54:13.026Z,54.41
2023-01-30T20:56:46.200Z,53.98
2023-01-30T20:59:19.231Z,54.09
2023-01-30T21:01:48.986Z,53.83
2023-01-30T21:04:18.239Z,53.52
2023-01-30T21:06:47.303Z,53.59
2023-01-30T21:09:18.833Z,53.30
2023-01-30T21:11:48.501Z,53.30
2023-01-30T21:14:18.466Z,53.11
2023-01-30T21:16:47.387Z,52.97
2023-01-30T21:19:17.575Z,52.83
2023-01-30T21:21:51.393Z,52.78
2023-01-30T21:24:25.044Z,52.55
2023-01-30T21:26:53.077Z,52.46
2023-01-30T21:29:24.370Z,52.10
2023-01-30T21:31:52.315Z,52.14
2023-01-30T21:34:20.367Z,52.03
2023-01-30T21:37:07.417Z,52.10
2023-01-30T21:39:53.909Z,51.98
2023-01-30T21:42:43.644Z,51.79
2023-01-30T21:45:12.231Z,51.70
2023-01-30T21:47:39.961Z,50.38
2023-01-30T21:50:08.214Z,50.81
2023-01-30T21:52:35.647Z,50.64
2023-01-30T21:55:03.301Z,50.65
2023-01-30T21:57:31.189Z,50.72
2023-01-30T22:00:09.463Z,50.64
2023-01-30T22:02:38.816Z,50.75
2023-01-30T22:05:06.928Z,50.77
2023-01-30T22:07:34.173Z,50.88
2023-01-30T22:10:04.107Z,50.83
2023-01-30T22:12:32.783Z,50.86
2023-01-30T22:14:59.899Z,50.29
2023-01-30T22:17:28.058Z,50.25
2023-01-30T22:19:55.800Z,50.41
2023-01-30T22:22:25.637Z,50.55
2023-01-30T22:24:53.059Z,50.75
2023-01-30T22:27:20.417Z,50.89
2023-01-30T22:29:47.500Z,51.07
2023-01-30T22:32:16.072Z,51.10
2023-01-30T22:34:43.160Z,51.21
2023-01-30T22:37:10.257Z,51.39
2023-01-30T22:39:37.405Z,51.21
2023-01-30T22:42:04.800Z,51.38
2023-01-30T22:44:32.806Z,51.50
2023-01-30T22:46:59.940Z,51.68
2023-01-30T22:49:26.931Z,51.79
2023-01-30T22:51:55.456Z,51.97
2023-01-30T22:54:25.079Z,52.00
2023-01-30T22:56:52.974Z,52.04
2023-01-30T22:59:20.068Z,52.10
2023-01-30T23:01:50.916Z,52.11
2023-01-30T23:04:23.456Z,52.04
2023-01-30T23:06:54.253Z,52.38
2023-01-30T23:09:23.850Z,52.37
2023-01-30T23:12:13.426Z,52.38
2023-01-30T23:14:40.861Z,52.69
2023-01-30T23:17:26.794Z,52.81
2023-01-30T23:19:55.376Z,52.88
2023-01-30T23:22:22.631Z,52.93
2023-01-30T23:24:51.574Z,52.85
2023-01-30T23:27:23.105Z,52.92
2023-01-30T23:29:50.136Z,52.94
2023-01-30T23:32:20.309Z,53.31
2023-01-30T23:34:48.109Z,53.15
2023-01-30T23:37:15.547Z,53.31
2023-01-30T23:39:42.562Z,53.50
2023-01-30T23:42:09.683Z,53.57
2023-01-30T23:44:36.590Z,53.52
2023-01-30T23:47:03.536Z,53.67
2023-01-30T23:49:31.394Z,53.77
2023-01-30T23:51:58.411Z,53.87
2023-01-30T23:54:25.610Z,53.66
2023-01-30T23:56:54.992Z,53.71
2023-01-30T23:59:21.819Z,54.03
